Time;durP1;ratioP1;P1;durP2;ratioP2;P2;SDS_P1;SDS_P2;PMS_P1;PMS_P2;Temp;Humidity;BMP_temperature;BMP_pressure;BME280_temperature;BME280_humidity;BME280_pressure;Samples;Min_cycle;Max_cycle;Signal;HPM_P1;HPM_P2
2023/01/28 00:01:11;;;;;;;3.78;3.38;;;4.00;99.90;;;;;;5052305;28;20535;-46
2023/01/28 00:03:37;;;;;;;3.50;2.90;;;2.80;99.90;;;;;;5051127;28;20166;-46
2023/01/28 00:06:08;;;;;;;6.50;3.90;;;3.90;99.90;;;;;;5052079;28;20252;-46
2023/01/28 00:08:34;;;;;;;4.28;3.63;;;3.90;99.90;;;;;;5052103;28;20158;-45
2023/01/28 00:11:05;;;;;;;4.30;3.95;;;3.90;99.90;;;;;;5055954;28;20512;-45
2023/01/28 00:13:31;;;;;;;4.68;3.28;;;3.90;99.90;;;;;;5052144;28;20213;-45
2023/01/28 00:16:04;;;;;;;4.47;3.42;;;3.90;99.90;;;;;;5052086;28;20243;-45
2023/01/28 00:18:31;;;;;;;4.35;2.90;;;3.90;99.90;;;;;;5051640;28;20170;-45
2023/01/28 00:21:10;;;;;;;4.70;3.65;;;3.80;99.90;;;;;;5051861;28;20159;-45
2023/01/28 00:23:37;;;;;;;5.05;4.30;;;3.80;99.90;;;;;;5052408;28;20185;-46
2023/01/28 00:26:06;;;;;;;4.50;3.25;;;3.80;99.90;;;;;;5051652;28;20224;-45
2023/01/28 00:28:31;;;;;;;4.80;3.75;;;3.80;99.90;;;;;;5051716;28;20228;-45
2023/01/28 00:30:57;;;;;;;5.63;3.90;;;3.80;99.90;;;;;;5051343;28;20170;-46
2023/01/28 00:33:22;;;;;;;3.85;3.45;;;3.90;99.90;;;;;;5050558;28;20615;-45
2023/01/28 00:36:00;;;;;;;5.85;3.97;;;3.80;99.90;;;;;;5051723;28;20178;-45
2023/01/28 00:38:26;;;;;;;6.32;4.45;;;3.80;99.90;;;;;;5051877;28;20174;-46
2023/01/28 00:40:52;;;;;;;4.97;4.10;;;3.80;99.90;;;;;;5057546;28;20265;-45
2023/01/28 00:43:17;;;;;;;6.90;4.20;;;3.70;99.90;;;;;;5060460;28;20171;-46
2023/01/28 00:45:43;;;;;;;5.28;3.83;;;3.70;99.90;;;;;;5051516;28;20212;-45
2023/01/28 00:48:09;;;;;;;5.20;4.00;;;3.70;99.90;;;;;;5051928;28;20163;-45
2023/01/28 00:50:34;;;;;;;6.13;4.18;;;3.60;99.90;;;;;;5051654;28;20585;-45
2023/01/28 00:53:00;;;;;;;5.00;4.32;;;3.60;99.90;;;;;;5051409;28;20665;-45
2023/01/28 00:55:27;;;;;;;5.07;3.70;;;3.60;99.90;;;;;;5051010;28;20170;-45
2023/01/28 00:57:53;;;;;;;5.95;4.22;;;3.40;99.90;;;;;;5051658;28;20177;-45
2023/01/28 01:00:19;;;;;;;5.03;3.67;;;3.40;99.90;;;;;;5051237;28;20584;-46
2023/01/28 01:02:45;;;;;;;6.57;3.97;;;3.30;99.90;;;;;;5051171;28;20665;-46
2023/01/28 01:05:10;;;;;;;5.18;3.72;;;3.30;99.90;;;;;;5051027;28;20230;-46
2023/01/28 01:07:42;;;;;;;4.57;3.53;;;3.30;99.90;;;;;;5051778;28;20680;-46
2023/01/28 01:10:16;;;;;;;8.00;4.38;;;3.20;99.90;;;;;;5053991;28;20524;-45
2023/01/28 01:12:42;;;;;;;6.60;3.08;;;3.20;99.90;;;;;;5070735;28;20234;-46
2023/01/28 01:15:09;;;;;;;4.53;3.70;;;3.10;99.90;;;;;;5071252;28;20522;-46
2023/01/28 01:17:39;;;;;;;4.47;3.88;;;4.90;99.90;;;;;;5071558;28;20170;-46
2023/01/28 01:20:07;;;;;;;9.15;4.88;;;3.30;99.90;;;;;;5071472;28;20188;-46
2023/01/28 01:22:33;;;;;;;5.50;3.88;;;3.30;99.90;;;;;;5071058;28;20162;-46
2023/01/28 01:24:59;;;;;;;5.47;3.92;;;3.30;99.90;;;;;;5070796;28;20210;-46
2023/01/28 01:27:25;;;;;;;6.03;4.50;;;3.30;99.90;;;;;;5071109;28;20303;-46
2023/01/28 01:29:51;;;;;;;6.03;3.83;;;3.40;99.90;;;;;;5070962;28;20178;-46
2023/01/28 01:32:17;;;;;;;4.97;4.07;;;3.30;99.90;;;;;;5071084;28;20243;-46
2023/01/28 01:34:43;;;;;;;6.30;4.50;;;3.20;99.90;;;;;;5070574;28;20252;-46
2023/01/28 01:37:09;;;;;;;5.55;4.50;;;3.30;99.90;;;;;;5071321;28;20242;-46
2023/01/28 01:39:35;;;;;;;7.95;5.38;;;3.20;99.90;;;;;;5071486;28;20182;-46
2023/01/28 01:42:01;;;;;;;6.80;5.32;;;3.30;99.90;;;;;;5069753;28;20228;-46
2023/01/28 01:44:51;;;;;;;9.20;6.32;;;3.30;99.90;;;;;;5069490;28;20201;-46
2023/01/28 01:47:17;;;;;;;8.20;5.75;;;3.30;99.90;;;;;;5070813;28;20162;-46
2023/01/28 01:49:43;;;;;;;8.07;5.82;;;3.30;99.90;;;;;;5070894;28;20208;-46
2023/01/28 01:52:17;;;;;;;7.53;6.15;;;3.30;99.90;;;;;;5070418;28;20171;-46
2023/01/28 01:54:46;;;;;;;8.07;6.10;;;3.40;99.90;;;;;;5070836;28;20168;-46
2023/01/28 01:57:15;;;;;;;7.50;5.60;;;3.40;99.90;;;;;;5070708;28;20181;-46
2023/01/28 01:59:42;;;;;;;8.10;6.03;;;3.50;99.90;;;;;;5070658;28;20174;-46
2023/01/28 02:02:09;;;;;;;8.45;6.03;;;3.50;99.90;;;;;;5071049;28;20638;-46
2023/01/28 02:04:39;;;;;;;10.02;6.18;;;3.40;99.90;;;;;;5070822;28;20218;-46
2023/01/28 02:07:07;;;;;;;7.22;5.28;;;3.40;99.90;;;;;;5071866;28;20166;-46
2023/01/28 02:09:35;;;;;;;8.10;5.70;;;3.40;99.90;;;;;;5074216;28;20162;-48
2023/01/28 02:12:06;;;;;;;9.57;5.72;;;3.40;99.90;;;;;;5056513;28;20167;-46
2023/01/28 02:14:36;;;;;;;9.98;6.15;;;3.40;99.90;;;;;;5054245;28;20169;-46
2023/01/28 02:17:02;;;;;;;8.23;5.65;;;3.50;99.90;;;;;;5053983;28;20162;-46
2023/01/28 02:19:55;;;;;;;6.63;5.00;;;3.40;99.90;;;;;;5053906;28;20169;-46
2023/01/28 02:22:38;;;;;;;8.52;5.65;;;3.40;99.90;;;;;;5062660;28;20515;-45
2023/01/28 02:25:11;;;;;;;8.40;5.43;;;3.40;99.90;;;;;;5074325;28;20193;-46
2023/01/28 02:27:51;;;;;;;7.78;5.50;;;3.40;99.90;;;;;;5074375;28;20574;-46
2023/01/28 02:30:31;;;;;;;7.95;5.35;;;3.40;99.90;;;;;;5073977;28;20169;-46
2023/01/28 02:33:03;;;;;;;5.72;5.10;;;3.40;99.90;;;;;;5073988;28;20320;-46
2023/01/28 02:35:40;;;;;;;6.15;4.88;;;3.30;99.90;;;;;;5074040;28;20513;-46
2023/01/28 02:38:27;;;;;;;6.13;5.35;;;3.30;99.90;;;;;;5073760;28;20265;-45
2023/01/28 02:41:04;;;;;;;9.15;5.65;;;3.20;99.90;;;;;;5065591;28;20261;-45
2023/01/28 02:43:40;;;;;;;6.35;4.78;;;3.20;99.90;;;;;;5053868;28;20166;-45
2023/01/28 02:49:10;;;;;;;6.65;5.07;;;3.20;99.90;;;;;;5054002;28;20174;-46
2023/01/28 02:52:13;;;;;;;8.15;5.53;;;3.20;99.90;;;;;;5053921;28;20615;-46
2023/01/28 02:55:02;;;;;;;11.43;5.68;;;3.20;99.90;;;;;;5053344;28;20174;-46
2023/01/28 02:57:46;;;;;;;3.92;3.40;;;3.20;99.90;;;;;;5053498;28;20623;-46
2023/01/28 03:00:21;;;;;;;5.57;4.78;;;3.20;99.90;;;;;;5053341;28;20167;-46
2023/01/28 03:02:57;;;;;;;7.03;4.97;;;3.10;99.90;;;;;;5053147;28;20260;-46
2023/01/28 03:05:34;;;;;;;6.35;5.10;;;3.20;99.90;;;;;;5052571;28;20257;-46
2023/01/28 03:08:00;;;;;;;8.52;5.07;;;3.20;99.90;;;;;;5053267;28;20163;-46
2023/01/28 03:38:32;;;;;;;5.57;4.70;;;3.10;99.90;;;;;;5072850;28;20656;-46
2023/01/28 03:41:01;;;;;;;5.03;4.25;;;3.10;99.90;;;;;;5061969;28;20220;-46
2023/01/28 03:43:28;;;;;;;7.10;4.60;;;3.00;99.90;;;;;;5052918;28;20179;-45
2023/01/28 03:45:54;;;;;;;7.85;5.57;;;3.10;99.90;;;;;;5052579;28;20216;-47
2023/01/28 03:48:25;;;;;;;6.65;4.47;;;3.10;99.90;;;;;;5052311;28;20163;-46
2023/01/28 03:50:53;;;;;;;6.68;4.90;;;3.10;99.90;;;;;;5052592;28;20163;-46
2023/01/28 03:53:19;;;;;;;7.15;5.70;;;3.10;99.90;;;;;;5052476;28;20254;-46
2023/01/28 03:55:47;;;;;;;6.40;5.10;;;3.10;99.90;;;;;;5052478;28;20249;-46
2023/01/28 03:58:13;;;;;;;6.20;5.18;;;3.10;99.90;;;;;;5052261;28;20163;-46
2023/01/28 04:00:41;;;;;;;9.25;5.78;;;3.10;99.90;;;;;;5052310;28;20245;-46
2023/01/28 04:03:24;;;;;;;6.72;5.90;;;3.10;99.90;;;;;;5052577;28;20198;-46
2023/01/28 04:05:59;;;;;;;7.90;5.72;;;3.20;99.90;;;;;;5052190;28;20289;-46
2023/01/28 04:08:24;;;;;;;10.70;6.57;;;3.20;99.90;;;;;;5052186;28;20656;-46
2023/01/28 04:10:50;;;;;;;7.50;6.53;;;3.10;99.90;;;;;;5061569;28;20173;-46
2023/01/28 04:13:17;;;;;;;13.70;8.32;;;3.20;99.90;;;;;;5071992;28;20207;-46
2023/01/28 04:15:44;;;;;;;11.98;7.90;;;3.20;99.90;;;;;;5071437;28;20170;-46
2023/01/28 04:18:09;;;;;;;13.13;9.10;;;3.30;99.90;;;;;;5071409;28;20657;-46
2023/01/28 04:20:36;;;;;;;15.63;10.38;;;3.20;99.90;;;;;;5072242;28;20170;-47
2023/01/28 04:23:02;;;;;;;13.73;9.50;;;3.20;99.90;;;;;;5072135;28;20166;-46
2023/01/28 04:25:27;;;;;;;17.05;10.32;;;3.20;99.90;;;;;;5071549;28;20210;-46
2023/01/28 04:27:53;;;;;;;15.02;10.70;;;3.30;99.90;;;;;;5071505;28;20158;-46
2023/01/28 04:30:19;;;;;;;12.95;10.13;;;3.30;99.90;;;;;;5070999;28;20211;-46
2023/01/28 04:32:49;;;;;;;14.38;10.40;;;3.30;99.90;;;;;;5070423;28;20711;-46
2023/01/28 04:35:15;;;;;;;16.65;11.27;;;3.30;99.90;;;;;;5071636;28;20169;-46
2023/01/28 04:37:41;;;;;;;13.93;10.15;;;3.30;99.90;;;;;;5071638;28;20185;-46
2023/01/28 04:40:08;;;;;;;18.67;11.95;;;3.20;99.90;;;;;;5068579;28;20170;-46
2023/01/28 04:42:33;;;;;;;18.80;11.27;;;3.20;99.90;;;;;;5051594;28;20631;-45
2023/01/28 04:44:59;;;;;;;16.92;10.80;;;3.10;99.90;;;;;;5051554;28;20210;-46
2023/01/28 04:47:24;;;;;;;15.38;10.65;;;3.00;99.90;;;;;;5051533;28;20174;-46
2023/01/28 04:49:50;;;;;;;16.30;11.10;;;3.00;99.90;;;;;;5051511;28;20178;-46
2023/01/28 04:52:15;;;;;;;16.80;11.30;;;3.00;99.90;;;;;;5051738;28;20177;-46
2023/01/28 04:54:41;;;;;;;16.90;11.25;;;3.00;99.90;;;;;;5051437;28;20244;-46
2023/01/28 04:57:06;;;;;;;19.02;11.93;;;3.10;99.90;;;;;;5051532;28;20167;-46
2023/01/28 04:59:32;;;;;;;20.10;12.00;;;3.10;99.90;;;;;;5050925;28;20532;-50
2023/01/28 05:01:57;;;;;;;20.23;11.48;;;3.00;99.90;;;;;;5051458;28;20630;-46
2023/01/28 05:04:23;;;;;;;17.80;11.18;;;3.00;99.90;;;;;;5051106;28;20240;-46
2023/01/28 05:06:49;;;;;;;17.52;11.70;;;3.10;99.90;;;;;;5051318;28;20261;-46
2023/01/28 05:09:14;;;;;;;18.75;11.40;;;3.10;99.90;;;;;;5051330;28;20242;-46
2023/01/28 05:11:40;;;;;;;18.23;11.85;;;3.10;99.90;;;;;;5068626;28;20240;-46
2023/01/28 05:14:05;;;;;;;18.33;11.77;;;3.00;99.90;;;;;;5071698;28;20178;-46
2023/01/28 05:16:33;;;;;;;17.50;11.50;;;3.00;99.90;;;;;;5071280;28;20177;-46
2023/01/28 05:18:58;;;;;;;18.65;11.10;;;3.00;99.90;;;;;;5071480;28;20212;-46
2023/01/28 05:21:24;;;;;;;18.73;10.75;;;3.00;99.90;;;;;;5071294;28;20215;-46
2023/01/28 05:23:49;;;;;;;16.48;10.43;;;2.90;99.90;;;;;;5071253;28;20162;-46
2023/01/28 05:26:15;;;;;;;17.02;10.20;;;2.90;99.90;;;;;;5071053;28;20209;-46
2023/01/28 05:28:40;;;;;;;14.57;10.15;;;2.90;99.90;;;;;;5071088;28;20174;-46
2023/01/28 05:31:06;;;;;;;15.95;10.52;;;2.80;99.90;;;;;;5071524;28;20176;-46
2023/01/28 05:33:32;;;;;;;16.48;10.43;;;2.90;99.90;;;;;;5071019;28;20162;-46
2023/01/28 05:35:58;;;;;;;15.90;10.85;;;2.80;99.90;;;;;;5071381;28;20166;-46
2023/01/28 05:38:24;;;;;;;18.70;11.13;;;2.90;99.90;;;;;;5072159;28;20212;-46
2023/01/28 05:40:49;;;;;;;15.35;9.32;;;3.00;99.90;;;;;;5069386;28;20535;-45
2023/01/28 05:43:15;;;;;;;15.32;10.45;;;3.00;99.90;;;;;;5074030;28;20649;-46
2023/01/28 05:45:40;;;;;;;16.38;10.13;;;2.90;99.90;;;;;;5074888;28;20662;-45
2023/01/28 05:48:06;;;;;;;17.70;11.07;;;2.80;99.90;;;;;;5074945;28;20630;-45
2023/01/28 05:50:32;;;;;;;12.43;8.05;;;2.80;99.90;;;;;;5074803;28;20170;-46
2023/01/28 05:52:57;;;;;;;15.20;10.93;;;2.80;99.90;;;;;;5074811;28;20166;-45
2023/01/28 05:55:23;;;;;;;18.02;10.95;;;2.90;99.90;;;;;;5074861;28;20178;-46
2023/01/28 05:57:49;;;;;;;15.63;10.68;;;2.90;99.90;;;;;;5074995;28;20224;-46
2023/01/28 06:00:15;;;;;;;17.52;10.93;;;2.90;99.90;;;;;;5074609;28;20162;-46
2023/01/28 06:02:42;;;;;;;14.25;9.93;;;2.80;99.90;;;;;;5074835;28;20170;-45
2023/01/28 06:05:08;;;;;;;17.58;11.70;;;3.00;99.90;;;;;;5074743;28;20808;-46
2023/01/28 06:07:33;;;;;;;16.10;10.57;;;3.00;99.90;;;;;;5074832;28;20212;-46
2023/01/28 06:09:59;;;;;;;19.95;11.15;;;3.00;99.90;;;;;;5070097;28;20175;-46
2023/01/28 06:12:25;;;;;;;16.73;10.88;;;3.00;99.90;;;;;;5054581;28;20167;-46
2023/01/28 06:14:50;;;;;;;18.35;10.88;;;3.00;99.90;;;;;;5054327;28;20244;-46
2023/01/28 06:17:16;;;;;;;17.55;10.55;;;3.00;99.90;;;;;;5054338;28;20240;-46
2023/01/28 06:19:42;;;;;;;16.58;10.95;;;3.00;99.90;;;;;;5054343;28;20193;-49
2023/01/28 06:22:08;;;;;;;15.25;10.52;;;3.00;99.90;;;;;;5054611;28;20206;-46
2023/01/28 06:24:34;;;;;;;12.55;9.63;;;2.90;99.90;;;;;;5054878;28;20229;-46
2023/01/28 06:26:59;;;;;;;15.95;9.82;;;2.80;99.90;;;;;;5054278;28;20186;-46
2023/01/28 06:29:25;;;;;;;15.50;9.18;;;2.90;99.90;;;;;;5054298;28;20167;-46
2023/01/28 06:31:51;;;;;;;13.98;9.38;;;2.80;99.90;;;;;;5054197;28;20197;-45
2023/01/28 06:34:16;;;;;;;13.70;8.82;;;2.90;99.90;;;;;;5054069;28;20166;-46
2023/01/28 06:36:42;;;;;;;12.65;9.35;;;2.90;99.90;;;;;;5055319;28;20170;-45
2023/01/28 06:39:07;;;;;;;18.40;9.57;;;2.90;99.90;;;;;;5073376;28;20582;-46
2023/01/28 06:41:33;;;;;;;13.38;8.73;;;3.00;99.90;;;;;;5073905;28;20227;-45
2023/01/28 06:43:59;;;;;;;11.45;8.95;;;3.00;99.90;;;;;;5073833;28;20537;-46
2023/01/28 06:46:24;;;;;;;9.75;6.43;;;3.00;99.90;;;;;;5073743;28;20197;-46
2023/01/28 06:48:50;;;;;;;10.63;8.23;;;2.90;99.90;;;;;;5073923;28;20170;-46
2023/01/28 06:51:15;;;;;;;9.77;7.18;;;2.90;99.90;;;;;;5074020;28;20216;-46
2023/01/28 06:53:41;;;;;;;10.50;7.40;;;2.90;99.90;;;;;;5072690;28;20699;-45
2023/01/28 06:56:07;;;;;;;12.77;8.13;;;2.90;99.90;;;;;;5073788;28;20189;-46
2023/01/28 06:58:33;;;;;;;10.60;8.07;;;2.90;99.90;;;;;;5073901;28;20174;-46
2023/01/28 07:00:59;;;;;;;10.15;7.60;;;2.90;99.90;;;;;;5073368;28;20174;-46
2023/01/28 07:03:25;;;;;;;11.35;8.07;;;2.90;99.90;;;;;;5073386;28;20181;-46
2023/01/28 07:05:50;;;;;;;12.60;8.27;;;2.90;99.90;;;;;;5073420;28;20271;-45
2023/01/28 07:08:16;;;;;;;10.10;8.20;;;2.90;99.90;;;;;;5059197;28;20177;-45
2023/01/28 07:10:42;;;;;;;10.27;7.50;;;2.90;99.90;;;;;;5052243;28;20206;-46
2023/01/28 07:13:09;;;;;;;11.23;7.45;;;2.90;99.90;;;;;;5052420;28;20253;-45
2023/01/28 07:15:34;;;;;;;10.95;7.30;;;2.90;99.90;;;;;;5053547;28;20254;-45
2023/01/28 07:18:00;;;;;;;10.60;7.90;;;2.90;99.90;;;;;;5053233;28;20258;-45
2023/01/28 07:20:26;;;;;;;9.93;7.38;;;2.80;99.90;;;;;;5053269;28;20253;-46
2023/01/28 07:22:51;;;;;;;11.50;7.25;;;2.90;99.90;;;;;;5056544;28;20197;-46
2023/01/28 07:25:17;;;;;;;11.68;7.47;;;2.80;99.90;;;;;;5072976;28;20260;-45
2023/01/28 07:27:51;;;;;;;11.70;8.05;;;2.80;99.90;;;;;;5072909;28;20660;-46
2023/01/28 07:30:17;;;;;;;12.93;8.15;;;2.90;99.90;;;;;;5073179;28;20238;-46
2023/01/28 07:32:43;;;;;;;12.50;7.63;;;2.90;99.90;;;;;;5072895;28;20162;-45
2023/01/28 07:35:09;;;;;;;10.57;7.60;;;2.90;99.90;;;;;;5072975;28;20170;-46
2023/01/28 07:37:35;;;;;;;8.27;6.93;;;2.90;99.90;;;;;;5066963;28;20708;-46
2023/01/28 07:40:00;;;;;;;9.73;7.43;;;2.90;99.90;;;;;;5061811;28;20202;-45
2023/01/28 07:42:26;;;;;;;9.93;7.32;;;3.00;99.90;;;;;;5059917;28;20517;-46
2023/01/28 07:44:51;;;;;;;9.00;6.95;;;3.00;99.90;;;;;;5072981;28;20302;-46
2023/01/28 07:47:18;;;;;;;11.07;7.50;;;2.90;99.90;;;;;;5072633;28;20180;-45
2023/01/28 07:49:43;;;;;;;10.70;7.88;;;2.90;99.90;;;;;;5071396;28;20653;-45
2023/01/28 07:52:09;;;;;;;8.73;6.25;;;2.90;99.90;;;;;;5072623;28;20193;-46
2023/01/28 07:54:35;;;;;;;14.55;6.65;;;2.90;99.90;;;;;;5072947;28;20502;-46
2023/01/28 07:57:08;;;;;;;10.82;7.80;;;2.90;99.90;;;;;;5065320;28;20178;-45
2023/01/28 07:59:34;;;;;;;10.00;7.85;;;3.00;99.90;;;;;;5052026;28;20194;-46
2023/01/28 08:02:00;;;;;;;10.93;7.53;;;3.00;99.90;;;;;;5052317;28;20243;-46
2023/01/28 08:04:25;;;;;;;9.57;7.85;;;3.00;99.90;;;;;;5062867;28;20216;-46
2023/01/28 08:06:51;;;;;;;11.38;8.48;;;2.90;99.90;;;;;;5066122;28;20201;-45
2023/01/28 08:09:17;;;;;;;14.90;9.23;;;2.90;99.90;;;;;;5052783;28;20194;-45
2023/01/28 08:11:42;;;;;;;10.77;8.48;;;2.90;99.90;;;;;;5052101;28;20627;-46
2023/01/28 08:14:09;;;;;;;12.45;8.93;;;3.00;99.90;;;;;;5052003;28;20162;-46
2023/01/28 08:16:35;;;;;;;16.48;9.60;;;3.00;99.90;;;;;;5051120;28;20826;-47
2023/01/28 08:19:01;;;;;;;12.85;9.13;;;3.00;99.90;;;;;;5051930;28;20261;-45
2023/01/28 08:21:27;;;;;;;12.48;8.90;;;2.80;99.90;;;;;;5052163;28;20551;-45
2023/01/28 08:23:53;;;;;;;13.23;8.57;;;2.90;99.90;;;;;;5060670;28;20235;-46
2023/01/28 08:26:19;;;;;;;12.10;8.85;;;2.90;99.90;;;;;;5071766;28;20251;-46
2023/01/28 08:28:45;;;;;;;17.27;9.43;;;2.80;99.90;;;;;;5071765;28;20162;-45
2023/01/28 08:31:10;;;;;;;14.68;8.65;;;2.80;99.90;;;;;;5070363;28;20224;-46
2023/01/28 08:33:36;;;;;;;14.32;8.98;;;2.80;99.90;;;;;;5072065;28;20580;-45
2023/01/28 08:36:03;;;;;;;10.85;7.35;;;2.90;99.90;;;;;;5071760;28;20162;-46
2023/01/28 08:38:28;;;;;;;11.50;7.97;;;2.90;99.90;;;;;;5072012;28;20231;-46
2023/01/28 08:40:55;;;;;;;13.23;8.32;;;2.90;99.90;;;;;;5071467;28;20162;-46
2023/01/28 08:43:21;;;;;;;12.30;8.00;;;2.90;99.90;;;;;;5070328;28;20197;-45
2023/01/28 08:45:47;;;;;;;25.73;9.30;;;2.80;99.90;;;;;;5071361;28;20237;-45
2023/01/28 08:48:16;;;;;;;18.17;8.75;;;2.80;99.90;;;;;;5071742;28;20174;-46
2023/01/28 08:50:42;;;;;;;10.10;7.88;;;2.90;99.90;;;;;;5071570;28;20243;-46
2023/01/28 08:53:14;;;;;;;11.82;8.07;;;2.80;99.90;;;;;;5070970;28;20635;-46
2023/01/28 08:55:39;;;;;;;9.68;8.07;;;2.90;99.90;;;;;;5071447;28;20648;-46
2023/01/28 08:58:09;;;;;;;10.77;7.57;;;2.90;99.90;;;;;;5064376;28;20174;-46
2023/01/28 09:00:35;;;;;;;11.57;8.07;;;2.90;99.90;;;;;;5051630;28;20296;-46
2023/01/28 09:03:01;;;;;;;18.33;7.95;;;3.00;99.90;;;;;;5051276;28;20244;-46
2023/01/28 09:05:27;;;;;;;11.63;8.30;;;2.90;99.90;;;;;;5050886;28;20260;-46
2023/01/28 09:07:52;;;;;;;13.10;8.13;;;3.00;99.90;;;;;;5083539;28;20638;-46
2023/01/28 09:10:19;;;;;;;9.02;7.72;;;3.10;99.90;;;;;;5051161;28;20166;-46
2023/01/28 09:12:45;;;;;;;11.07;7.25;;;3.10;99.90;;;;;;5051075;28;20210;-46
2023/01/28 09:15:11;;;;;;;11.45;8.02;;;3.00;99.90;;;;;;5051493;28;20296;-46
2023/01/28 09:17:37;;;;;;;10.95;7.28;;;3.00;99.90;;;;;;5051156;28;20253;-46
2023/01/28 09:20:03;;;;;;;11.40;8.10;;;3.10;99.90;;;;;;5049929;28;20761;-46
2023/01/28 09:22:29;;;;;;;10.70;8.25;;;3.10;99.90;;;;;;5050869;28;20177;-46
2023/01/28 09:24:54;;;;;;;10.40;8.20;;;3.10;99.90;;;;;;5066698;28;20201;-46
2023/01/28 09:27:20;;;;;;;12.20;7.97;;;3.10;99.90;;;;;;5049784;28;20167;-46
2023/01/28 09:29:45;;;;;;;8.43;6.82;;;3.20;99.90;;;;;;5050914;28;20598;-46
2023/01/28 09:32:11;;;;;;;8.73;7.47;;;3.10;99.90;;;;;;5051324;28;20167;-46
2023/01/28 09:34:37;;;;;;;11.13;7.15;;;3.00;99.90;;;;;;5051403;28;20171;-46
2023/01/28 09:37:02;;;;;;;9.98;8.05;;;3.00;99.90;;;;;;5051123;28;20182;-46
2023/01/28 09:39:28;;;;;;;12.18;8.57;;;3.00;99.90;;;;;;5051044;28;20166;-46
2023/01/28 09:41:59;;;;;;;9.98;8.05;;;3.10;99.90;;;;;;5051106;28;20192;-46
2023/01/28 09:44:53;;;;;;;11.18;7.65;;;3.10;99.90;;;;;;5050773;28;20163;-46
2023/01/28 09:47:32;;;;;;;10.25;8.48;;;3.10;99.90;;;;;;5049524;28;20716;-46
2023/01/28 09:50:00;;;;;;;10.48;8.93;;;3.10;99.90;;;;;;5050757;28;20660;-45
2023/01/28 09:52:28;;;;;;;12.35;9.30;;;3.20;99.90;;;;;;5051163;28;20173;-46
2023/01/28 09:55:05;;;;;;;10.77;8.88;;;3.10;99.90;;;;;;5067434;28;20178;-46
2023/01/28 09:57:39;;;;;;;11.50;9.05;;;3.20;99.90;;;;;;5070967;28;20174;-46
2023/01/28 10:00:23;;;;;;;11.68;8.73;;;3.30;99.90;;;;;;5070750;28;20169;-46
2023/01/28 10:03:24;;;;;;;14.15;7.78;;;3.10;99.90;;;;;;5070374;28;20208;-46
2023/01/28 10:06:23;;;;;;;11.40;8.75;;;3.20;99.90;;;;;;5070584;28;20212;-46
2023/01/28 10:09:15;;;;;;;10.93;8.27;;;3.30;99.90;;;;;;5070529;28;20723;-46
2023/01/28 10:12:11;;;;;;;11.85;8.45;;;3.10;99.90;;;;;;5070672;28;20212;-46
2023/01/28 10:15:01;;;;;;;12.90;9.13;;;3.10;99.90;;;;;;5071024;28;20177;-46
2023/01/28 10:17:41;;;;;;;13.65;8.65;;;3.20;99.90;;;;;;5070761;28;20167;-45
2023/01/28 10:20:29;;;;;;;11.65;9.00;;;3.20;99.90;;;;;;5071070;28;20174;-45
2023/01/28 10:23:04;;;;;;;12.13;8.32;;;3.20;99.90;;;;;;5068291;28;20180;-46
2023/01/28 10:25:31;;;;;;;12.43;9.88;;;3.10;99.90;;;;;;5049167;28;20316;-46
2023/01/28 10:27:59;;;;;;;14.25;8.68;;;3.20;99.90;;;;;;5050325;28;20170;-46
2023/01/28 10:30:28;;;;;;;11.75;8.63;;;3.20;99.90;;;;;;5051997;28;20638;-46
2023/01/28 10:33:03;;;;;;;12.40;9.30;;;3.30;99.90;;;;;;5053869;28;20208;-46
2023/01/28 10:35:34;;;;;;;12.95;10.13;;;3.20;99.90;;;;;;5054148;28;20170;-46
2023/01/28 10:38:06;;;;;;;14.82;10.18;;;3.30;99.90;;;;;;5054099;28;20170;-45
2023/01/28 10:40:33;;;;;;;16.95;10.80;;;3.40;99.90;;;;;;5053771;28;20162;-45
2023/01/28 10:42:58;;;;;;;12.98;9.45;;;3.40;99.90;;;;;;5053843;28;20169;-46
2023/01/28 10:45:41;;;;;;;14.55;10.75;;;3.30;99.90;;;;;;5053622;28;20206;-46
2023/01/28 10:48:28;;;;;;;23.27;15.50;;;3.30;99.90;;;;;;5052929;28;20222;-46
2023/01/28 10:51:01;;;;;;;19.60;11.88;;;3.20;99.90;;;;;;5053485;28;20174;-45
2023/01/28 10:53:35;;;;;;;15.05;10.80;;;3.10;99.90;;;;;;5060095;28;20158;-46
2023/01/28 10:56:03;;;;;;;16.52;11.70;;;3.00;99.90;;;;;;5072884;28;20284;-46
2023/01/28 10:58:32;;;;;;;17.50;11.75;;;3.10;99.90;;;;;;5073367;28;20209;-46
2023/01/28 11:01:04;;;;;;;16.40;12.30;;;3.20;99.90;;;;;;5073511;28;20166;-46
2023/01/28 11:03:30;;;;;;;20.33;12.48;;;3.20;99.90;;;;;;5072384;28;20219;-46
2023/01/28 11:05:57;;;;;;;17.77;12.73;;;3.30;99.90;;;;;;5072177;28;20255;-45
2023/01/28 11:08:25;;;;;;;17.00;12.88;;;3.40;99.90;;;;;;5073381;28;20166;-46
2023/01/28 11:10:53;;;;;;;21.88;13.68;;;3.50;99.90;;;;;;5072067;28;20166;-46
2023/01/28 11:13:25;;;;;;;17.23;12.55;;;3.50;99.90;;;;;;5072120;28;20162;-46
2023/01/28 11:15:54;;;;;;;19.58;13.07;;;3.60;99.90;;;;;;5073230;28;20165;-46
2023/01/28 11:18:23;;;;;;;18.52;12.73;;;3.60;99.90;;;;;;5073263;28;20232;-46
2023/01/28 11:20:58;;;;;;;17.65;12.18;;;3.60;99.90;;;;;;5073276;28;20631;-45
2023/01/28 11:23:27;;;;;;;16.98;12.85;;;3.60;99.90;;;;;;5066775;28;20168;-45
2023/01/28 11:26:24;;;;;;;15.80;12.05;;;3.60;99.90;;;;;;5052879;28;20678;-46
2023/01/28 11:28:51;;;;;;;14.43;11.95;;;3.70;99.90;;;;;;5051978;28;20306;-46
2023/01/28 11:31:22;;;;;;;15.95;12.07;;;3.80;99.90;;;;;;5056834;28;20170;-46
2023/01/28 11:33:57;;;;;;;16.60;11.60;;;3.80;99.90;;;;;;5072913;28;20170;-46
2023/01/28 11:36:28;;;;;;;17.50;11.88;;;3.80;99.90;;;;;;5072896;28;20177;-46
2023/01/28 11:38:56;;;;;;;18.05;11.13;;;3.70;99.90;;;;;;5072516;28;20170;-46
2023/01/28 11:41:27;;;;;;;13.55;10.80;;;3.60;99.90;;;;;;5071116;28;20174;-45
2023/01/28 11:43:54;;;;;;;11.40;8.63;;;3.60;99.90;;;;;;5072626;28;20176;-46
2023/01/28 11:46:19;;;;;;;15.30;9.77;;;3.40;99.90;;;;;;5071588;28;20205;-46
2023/01/28 11:48:56;;;;;;;12.50;10.27;;;3.30;99.90;;;;;;5072269;28;20575;-45
2023/01/28 11:52:03;;;;;;;15.07;10.93;;;3.30;99.90;;;;;;5072272;28;20166;-46
2023/01/28 11:54:44;;;;;;;14.02;10.65;;;3.10;99.90;;;;;;4991633;28;20177;-46
2023/01/28 11:57:21;;;;;;;19.50;11.27;;;3.20;99.90;;;;;;5049814;28;20229;-46
2023/01/28 11:59:57;;;;;;;23.63;14.20;;;3.20;99.90;;;;;;5052567;28;20524;-46
2023/01/28 12:02:44;;;;;;;21.08;14.05;;;3.40;99.90;;;;;;5051363;28;20182;-46
2023/01/28 12:05:38;;;;;;;16.70;11.27;;;3.50;99.90;;;;;;5051803;28;20219;-46
2023/01/28 12:08:42;;;;;;;15.88;10.77;;;3.40;99.90;;;;;;5052142;28;20174;-46
2023/01/28 12:12:10;;;;;;;18.38;12.23;;;3.50;99.90;;;;;;5049440;28;20215;-46
2023/01/28 12:14:28;;;;;;;15.27;10.50;;;3.60;99.90;;;;;;5052023;28;20539;-46
2023/01/28 12:17:09;;;;;;;15.65;10.90;;;3.60;99.90;;;;;;5051870;28;20224;-46
2023/01/28 12:19:50;;;;;;;15.32;10.23;;;3.60;99.90;;;;;;5050964;28;20208;-46
2023/01/28 12:22:49;;;;;;;13.65;10.20;;;3.50;99.90;;;;;;5050668;28;20158;-46
2023/01/28 12:25:28;;;;;;;17.30;11.27;;;3.60;99.90;;;;;;5051634;28;20293;-46
2023/01/28 12:27:59;;;;;;;15.07;11.23;;;3.50;99.90;;;;;;5049955;28;20167;-46
2023/01/28 12:30:28;;;;;;;14.40;9.52;;;3.30;99.90;;;;;;5051412;28;20591;-46
2023/01/28 12:33:15;;;;;;;14.98;10.48;;;3.20;99.90;;;;;;5051587;28;20169;-46
2023/01/28 12:35:51;;;;;;;15.77;11.38;;;3.10;99.90;;;;;;5051660;28;20683;-46
2023/01/28 12:38:55;;;;;;;14.27;11.20;;;3.20;99.90;;;;;;5051715;28;20220;-46
2023/01/28 12:41:27;;;;;;;17.38;11.20;;;3.20;99.90;;;;;;5051694;28;20664;-46
2023/01/28 12:44:02;;;;;;;16.23;11.73;;;3.40;99.90;;;;;;5053995;28;20629;-46
2023/01/28 12:46:54;;;;;;;19.65;11.70;;;3.40;99.90;;;;;;5071400;28;20688;-46
2023/01/28 12:49:47;;;;;;;16.55;11.02;;;3.50;99.90;;;;;;5071430;28;20180;-46
2023/01/28 12:52:31;;;;;;;16.95;10.45;;;3.40;99.90;;;;;;5052735;28;20178;-46
2023/01/28 12:55:14;;;;;;;20.58;12.50;;;3.50;99.90;;;;;;5070105;28;20219;-45
2023/01/28 12:57:40;;;;;;;18.48;12.30;;;3.50;99.90;;;;;;5071448;28;20614;-46
2023/01/28 13:00:18;;;;;;;15.73;11.75;;;3.60;99.90;;;;;;5071658;28;20174;-46
2023/01/28 13:02:52;;;;;;;15.88;12.18;;;3.60;99.90;;;;;;5071523;28;20212;-46
2023/01/28 13:05:22;;;;;;;18.08;10.98;;;3.70;99.90;;;;;;5071089;28;20224;-46
2023/01/28 13:08:03;;;;;;;17.08;11.88;;;3.90;99.90;;;;;;5071188;28;20215;-46
2023/01/28 13:10:35;;;;;;;16.70;12.13;;;3.90;99.90;;;;;;5071214;28;20215;-46
2023/01/28 13:13:03;;;;;;;19.52;12.15;;;3.90;99.90;;;;;;5069970;28;20174;-46
2023/01/28 13:15:29;;;;;;;20.45;12.98;;;4.10;99.90;;;;;;5055750;28;20185;-46
2023/01/28 13:18:00;;;;;;;16.85;11.90;;;4.10;99.90;;;;;;5049844;28;20174;-46
2023/01/28 13:20:35;;;;;;;15.88;12.10;;;4.10;99.90;;;;;;5049496;28;20205;-46
2023/01/28 13:23:05;;;;;;;15.15;12.07;;;3.90;99.90;;;;;;5051054;28;20167;-45
2023/01/28 13:25:33;;;;;;;16.17;11.32;;;3.90;99.90;;;;;;5050555;28;20214;-46
2023/01/28 13:27:58;;;;;;;13.75;11.07;;;3.80;99.90;;;;;;5050978;28;20587;-45
2023/01/28 13:30:29;;;;;;;20.98;13.35;;;3.70;99.90;;;;;;5051029;28;20171;-45
2023/01/28 13:33:05;;;;;;;21.35;14.00;;;3.60;99.90;;;;;;5049730;28;20642;-46